Big Bear Station Historical Data
Daily Summary for February 1, 2017 Units:  English    Metric   Both
« Previous Day
Next Day »
Daily Weekly Monthly Yearly Custom
  High: Low: Average:
Temperature: 50.4 °F 17.1 °F 33.1 °F
Dew Point: 22.0 °F 7.5 °F 13.8 °F
Humidity: 86 % 23 % 50 %
Wind Speed: 10.4 mph 0.0 mph 1.8 mph
Wind Gust: -999.0 mph - -
Wind:- - SSW
Pressure: 30.20 in 30.13 in -
Precipitation: 0.00 in    
Historical Graphs
 
 
Tabular Data for February 1, 2017
Time Temperature Dew Point Pressure Wind Wind Speed Wind Gust Humidity Rainfall Rate (Hourly)
00:10 19.4 °F 13.7 °F 30.20 in Calm   -999.0 mph 78 % 0 in
00:26 18.9 °F 13.2 °F 30.20 in Calm   -999.0 mph 78 % 0 in
00:41 19.8 °F 12.9 °F 30.19 in Calm   -999.0 mph 74 % 0 in
00:56 18.9 °F 12.3 °F 30.19 in Calm   -999.0 mph 75 % 0 in
01:11 18.3 °F 13.2 °F 30.19 in Calm   -999.0 mph 80 % 0 in
01:27 18.1 °F 13.3 °F 30.19 in Calm   -999.0 mph 81 % 0 in
01:42 17.8 °F 13.8 °F 30.19 in Calm   -999.0 mph 84 % 0 in
01:57 18.5 °F 13.9 °F 30.19 in Calm   -999.0 mph 82 % 0 in
02:12 17.8 °F 13.0 °F 30.19 in Calm   -999.0 mph 81 % 0 in
02:27 17.6 °F 13.6 °F 30.18 in Calm   -999.0 mph 84 % 0 in
02:43 18.0 °F 13.7 °F 30.17 in Calm   -999.0 mph 83 % 0 in
02:58 17.4 °F 13.4 °F 30.18 in Calm   -999.0 mph 84 % 0 in
03:13 17.1 °F 13.1 °F 30.18 in Calm   -999.0 mph 84 % 0 in
03:28 18.0 °F 12.9 °F 30.18 in Calm   -999.0 mph 80 % 0 in
03:43 17.4 °F 12.6 °F 30.17 in Calm   -999.0 mph 81 % 0 in
03:59 17.8 °F 13.8 °F 30.17 in Calm   -999.0 mph 84 % 0 in
04:14 17.8 °F 13.0 °F 30.16 in Calm   -999.0 mph 81 % 0 in
04:29 18.0 °F 13.2 °F 30.16 in South 1.7 mph -999.0 mph 81 % 0 in
04:45 17.6 °F 12.8 °F 30.16 in Calm   -999.0 mph 81 % 0 in
05:00 17.2 °F 12.9 °F 30.16 in Calm   -999.0 mph 83 % 0 in
05:15 17.2 °F 12.9 °F 30.16 in SE 1.7 mph -999.0 mph 83 % 0 in
05:30 17.4 °F 12.8 °F 30.16 in Calm   -999.0 mph 82 % 0 in
05:45 19.2 °F 14.3 °F 30.17 in South 3.2 mph -999.0 mph 81 % 0 in
06:01 18.9 °F 13.8 °F 30.17 in Calm   -999.0 mph 80 % 0 in
06:16 18.3 °F 14.0 °F 30.16 in Calm   -999.0 mph 83 % 0 in
06:31 17.6 °F 14.1 °F 30.17 in Calm   -999.0 mph 86 % 0 in
06:46 18.1 °F 14.1 °F 30.17 in Calm   -999.0 mph 84 % 0 in
07:02 18.7 °F 14.1 °F 30.18 in Calm   -999.0 mph 82 % 0 in
07:17 19.0 °F 14.7 °F 30.18 in South 2.2 mph -999.0 mph 83 % 0 in
07:32 20.3 °F 13.9 °F 30.18 in SSW 1.1 mph -999.0 mph 76 % 0 in
07:47 20.8 °F 15.3 °F 30.18 in South 3.2 mph -999.0 mph 79 % 0 in
08:03 25.9 °F 13.5 °F 30.18 in South 3.2 mph -999.0 mph 59 % 0 in
08:18 29.1 °F 12.3 °F 30.18 in SSE 1.1 mph -999.0 mph 49 % 0 in
08:33 32.0 °F 9.2 °F 30.19 in Calm   -999.0 mph 38 % 0 in
08:48 35.2 °F 7.6 °F 30.18 in NW 2.7 mph -999.0 mph 31 % 0 in
09:03 39.6 °F 7.5 °F 30.19 in NNW 1.7 mph -999.0 mph 26 % 0 in
09:19 40.6 °F 8.3 °F 30.19 in Calm   -999.0 mph 26 % 0 in
09:34 40.6 °F 11.6 °F 30.19 in Calm   -999.0 mph 30 % 0 in
09:50 41.7 °F 10.1 °F 30.19 in NNW 1.7 mph -999.0 mph 27 % 0 in
10:05 43.0 °F 11.3 °F 30.19 in NNE 1.1 mph -999.0 mph 27 % 0 in
10:20 44.1 °F 12.2 °F 30.18 in WNW 2.7 mph -999.0 mph 27 % 0 in
10:35 46.0 °F 12.1 °F 30.18 in NW 1.7 mph -999.0 mph 25 % 0 in
10:50 45.9 °F 13.8 °F 30.17 in NW 2.7 mph -999.0 mph 27 % 0 in
11:06 47.3 °F 11.3 °F 30.17 in WNW 3.7 mph -999.0 mph 23 % 0 in
11:21 47.7 °F 12.6 °F 30.17 in SW 3.2 mph -999.0 mph 24 % 0 in
11:36 48.7 °F 12.5 °F 30.17 in NNE 1.7 mph -999.0 mph 23 % 0 in
11:52 47.7 °F 13.6 °F 30.16 in West 8.3 mph -999.0 mph 25 % 0 in
12:07 49.5 °F 14.2 °F 30.15 in SW 1.7 mph -999.0 mph 24 % 0 in
12:23 49.3 °F 14.9 °F 30.14 in NE 3.7 mph -999.0 mph 25 % 0 in
12:38 49.6 °F 16.1 °F 30.14 in SSW 2.7 mph -999.0 mph 26 % 0 in
12:53 48.4 °F 15.9 °F 30.14 in SSE 1.1 mph -999.0 mph 27 % 0 in
13:08 50.4 °F 17.6 °F 30.13 in North 3.2 mph -999.0 mph 27 % 0 in
13:23 48.6 °F 15.2 °F 30.13 in ESE 3.2 mph -999.0 mph 26 % 0 in
13:39 47.3 °F 13.2 °F 30.13 in NNE 4.7 mph -999.0 mph 25 % 0 in
13:54 46.2 °F 12.3 °F 30.13 in ESE 4.7 mph -999.0 mph 25 % 0 in
14:09 45.3 °F 12.4 °F 30.13 in SSW 4.7 mph -999.0 mph 26 % 0 in
14:25 45.1 °F 13.9 °F 30.13 in West 3.7 mph -999.0 mph 28 % 0 in
14:40 46.4 °F 13.3 °F 30.13 in SE 4.7 mph -999.0 mph 26 % 0 in
14:55 45.9 °F 12.9 °F 30.13 in SSW 2.7 mph -999.0 mph 26 % 0 in
15:10 45.7 °F 15.2 °F 30.13 in South 1.7 mph -999.0 mph 29 % 0 in
15:25 45.5 °F 16.6 °F 30.13 in North 10.4 mph -999.0 mph 31 % 0 in
15:41 44.8 °F 18.1 °F 30.13 in SW 2.2 mph -999.0 mph 34 % 0 in
15:56 43.5 °F 17.6 °F 30.13 in East 3.2 mph -999.0 mph 35 % 0 in
16:11 43.2 °F 18.7 °F 30.14 in West 1.1 mph -999.0 mph 37 % 0 in
16:27 42.4 °F 19.2 °F 30.15 in Calm   -999.0 mph 39 % 0 in
16:42 41.0 °F 20.7 °F 30.15 in NW 1.7 mph -999.0 mph 44 % 0 in
16:57 39.7 °F 20.1 °F 30.15 in SSE 1.1 mph -999.0 mph 45 % 0 in
17:12 38.1 °F 22.0 °F 30.15 in Calm   -999.0 mph 52 % 0 in
17:27 36.1 °F 21.5 °F 30.15 in Calm   -999.0 mph 55 % 0 in
17:43 35.6 °F 20.6 °F 30.15 in East 1.7 mph -999.0 mph 54 % 0 in
17:58 34.9 °F 19.5 °F 30.15 in South 2.2 mph -999.0 mph 53 % 0 in
18:13 34.2 °F 21.0 °F 30.15 in ESE 1.7 mph -999.0 mph 58 % 0 in
18:28 33.8 °F 17.1 °F 30.15 in Calm   -999.0 mph 50 % 0 in
18:43 35.1 °F 15.4 °F 30.15 in ESE 2.2 mph -999.0 mph 44 % 0 in
18:59 35.4 °F 16.7 °F 30.15 in SSE 1.7 mph -999.0 mph 46 % 0 in
19:14 35.6 °F 15.3 °F 30.15 in NW 2.2 mph -999.0 mph 43 % 0 in
19:29 36.0 °F 14.6 °F 30.15 in NNW 4.2 mph -999.0 mph 41 % 0 in
19:45 35.6 °F 14.7 °F 30.15 in NNW 2.7 mph -999.0 mph 42 % 0 in
20:00 36.0 °F 12.8 °F 30.15 in NNE 5.8 mph -999.0 mph 38 % 0 in
20:15 36.1 °F 10.4 °F 30.16 in WNW 1.1 mph -999.0 mph 34 % 0 in
20:31 36.1 °F 11.7 °F 30.16 in SSE 2.2 mph -999.0 mph 36 % 0 in
20:46 36.0 °F 11.0 °F 30.16 in ESE 2.2 mph -999.0 mph 35 % 0 in
21:02 36.3 °F 11.2 °F 30.16 in ESE 2.2 mph -999.0 mph 35 % 0 in
21:17 36.3 °F 12.5 °F 30.16 in NW 2.2 mph -999.0 mph 37 % 0 in
21:32 36.3 °F 10.6 °F 30.16 in West 1.7 mph -999.0 mph 34 % 0 in
21:47 35.8 °F 13.8 °F 30.16 in Calm   -999.0 mph 40 % 0 in
22:02 36.3 °F 11.2 °F 30.16 in East 1.7 mph -999.0 mph 35 % 0 in
22:18 36.0 °F 10.3 °F 30.15 in NE 4.7 mph -999.0 mph 34 % 0 in
22:33 36.5 °F 10.8 °F 30.15 in NNW 3.2 mph -999.0 mph 34 % 0 in
22:48 36.1 °F 11.1 °F 30.15 in SE 1.1 mph -999.0 mph 35 % 0 in
23:03 36.0 °F 10.3 °F 30.15 in NE 2.2 mph -999.0 mph 34 % 0 in
23:18 36.1 °F 11.1 °F 30.14 in ENE 3.2 mph -999.0 mph 35 % 0 in
23:34 36.7 °F 10.9 °F 30.14 in WNW 3.2 mph -999.0 mph 34 % 0 in
23:49 36.9 °F 9.0 °F 30.14 in NW 2.7 mph -999.0 mph 31 % 0 in
Big Bear CA Weather
Compliments of Weather Underground - 1.5 mb